Time,TemperatureF,DewpointF,PressureIn,WindDirection,WindDirectionDegrees,WindSpeedMPH,WindSpeedGustMPH,Humidity,HourlyPrecipIn,Conditions,Clouds,dailyrainin,SoftwareType,DateUTC
2013-02-09 00:02:00,27.0,-99.9,30.27,North,3,23.0,29.0,-999,-99.99,,,-99.99,,2013-02-09 05:02:00,
2013-02-09 00:42:00,27.0,-99.9,-100.00,NNW,333,19.0,26.0,-999,-99.99,,,-99.99,,2013-02-09 05:42:00,
2013-02-09 01:02:00,27.0,-99.9,30.29,NW,321,22.0,27.0,-999,-99.99,,,-99.99,,2013-02-09 06:02:00,
2013-02-09 01:11:00,27.0,-99.9,-100.00,NW,325,20.0,26.0,-999,-99.99,,,-99.99,,2013-02-09 06:11:00,
2013-02-09 01:32:00,27.0,-99.9,30.29,North,-999,-999.0,-999.0,-999,-99.99,,,-99.99,,2013-02-09 06:32:00,
2013-02-09 01:52:00,26.0,-99.9,30.29,NNW,333,25.0,29.0,-999,-99.99,,,-99.99,,2013-02-09 06:52:00,
2013-02-09 02:01:00,27.0,-99.9,30.29,NNW,340,21.0,26.0,-999,-99.99,,,-99.99,,2013-02-09 07:01:00,
2013-02-09 02:11:00,27.0,-99.9,-100.00,NNW,330,19.0,26.0,-999,-99.99,,,-99.99,,2013-02-09 07:11:00,
2013-02-09 02:22:00,-999.0,-99.9,-100.00,NNW,329,21.0,26.0,-999,-99.99,,,-99.99,,2013-02-09 07:22:00,
2013-02-09 02:32:00,26.0,-99.9,30.30,NNW,331,21.0,25.0,-999,-99.99,,,-99.99,,2013-02-09 07:32:00,
2013-02-09 02:42:00,26.0,-99.9,-100.00,NNW,327,22.0,28.0,-999,-99.99,,,-99.99,,2013-02-09 07:42:00,
2013-02-09 03:01:00,26.0,-99.9,30.31,NNW,329,18.0,24.0,-999,-99.99,,,-99.99,,2013-02-09 08:01:00,
2013-02-09 03:22:00,26.0,-99.9,30.31,NW,326,19.0,23.0,-999,-99.99,,,-99.99,,2013-02-09 08:22:00,
2013-02-09 03:32:00,26.0,-99.9,30.32,NW,326,17.0,23.0,-999,-99.99,,,-99.99,,2013-02-09 08:32:00,
2013-02-09 03:42:00,26.0,-99.9,-100.00,NW,326,19.0,25.0,-999,-99.99,,,-99.99,,2013-02-09 08:42:00,
2013-02-09 03:52:00,-999.0,-99.9,-100.00,NNW,329,19.0,23.0,-999,-99.99,,,-99.99,,2013-02-09 08:52:00,
2013-02-09 04:03:00,26.0,-99.9,30.32,NNW,336,17.0,21.0,-999,-99.99,,,-99.99,,2013-02-09 09:03:00,
2013-02-09 04:11:00,-999.0,-99.9,-100.00,NNW,331,16.0,20.0,-999,-99.99,,,-99.99,,2013-02-09 09:11:00,
2013-02-09 04:32:00,26.0,-99.9,30.33,NNW,337,17.0,22.0,-999,-99.99,,,-99.99,,2013-02-09 09:32:00,
2013-02-09 04:42:00,25.0,-99.9,-100.00,NNW,329,17.0,20.0,-999,-99.99,,,-99.99,,2013-02-09 09:42:00,
2013-02-09 04:52:00,25.0,-99.9,30.34,NNW,339,14.0,18.0,-999,-99.99,,,-99.99,,2013-02-09 09:52:00,
2013-02-09 05:01:00,25.0,-99.9,30.35,NNW,327,17.0,19.0,-999,-99.99,,,-99.99,,2013-02-09 10:01:00,
2013-02-09 05:11:00,25.0,-99.9,-100.00,NNW,345,18.0,21.0,-999,-99.99,,,-99.99,,2013-02-09 10:11:00,
2013-02-09 05:42:00,-999.0,-99.9,-100.00,North,350,15.0,20.0,-999,-99.99,,,-99.99,,2013-02-09 10:42:00,
2013-02-09 06:11:00,25.0,-99.9,-100.00,NNW,335,15.0,19.0,-999,-99.99,,,-99.99,,2013-02-09 11:11:00,
2013-02-09 06:22:00,-999.0,-99.9,-100.00,NNW,338,15.0,18.0,-999,-99.99,,,-99.99,,2013-02-09 11:22:00,
2013-02-09 06:32:00,25.0,-99.9,30.38,NNW,340,15.0,19.0,-999,-99.99,,,-99.99,,2013-02-09 11:32:00,
2013-02-09 06:42:00,25.0,-99.9,-100.00,NNW,341,16.0,19.0,-999,-99.99,,,-99.99,,2013-02-09 11:42:00,
2013-02-09 06:53:00,-999.0,-99.9,-100.00,North,355,12.0,16.0,-999,-99.99,,,-99.99,,2013-02-09 11:53:00,
2013-02-09 07:11:00,-999.0,-99.9,-100.00,North,2,14.0,17.0,-999,-99.99,,,-99.99,,2013-02-09 12:11:00,
2013-02-09 07:22:00,25.0,-99.9,30.39,NNE,17,12.0,17.0,-999,-99.99,,,-99.99,,2013-02-09 12:22:00,
2013-02-09 07:32:00,25.0,-99.9,30.39,NNE,26,13.0,16.0,-999,-99.99,,,-99.99,,2013-02-09 12:32:00,
2013-02-09 07:42:00,25.0,-99.9,30.39,North,1,13.0,16.0,-999,-99.99,,,-99.99,,2013-02-09 12:42:00,
2013-02-09 07:53:00,24.0,-99.9,30.39,North,-999,-999.0,-999.0,-999,-99.99,,,-99.99,,2013-02-09 12:53:00,
2013-02-09 08:02:00,24.0,-99.9,30.40,North,4,13.0,17.0,-999,-99.99,,,-99.99,,2013-02-09 13:02:00,
2013-02-09 08:11:00,24.0,-99.9,-100.00,NNE,30,14.0,16.0,-999,-99.99,,,-99.99,,2013-02-09 13:11:00,
2013-02-09 08:32:00,24.0,-99.9,30.41,NE,44,12.0,14.0,-999,-99.99,,,-99.99,,2013-02-09 13:32:00,
2013-02-09 08:42:00,-999.0,-99.9,-100.00,NNE,27,15.0,16.0,-999,-99.99,,,-99.99,,2013-02-09 13:42:00,
2013-02-09 09:02:00,24.0,-99.9,30.43,NNE,25,9.0,12.0,-999,-99.99,,,-99.99,,2013-02-09 14:02:00,
2013-02-09 09:12:00,24.0,-99.9,30.43,NE,45,9.0,13.0,-999,-99.99,,,-99.99,,2013-02-09 14:12:00,
2013-02-09 09:42:00,24.0,-99.9,-100.00,NE,34,9.0,11.0,-999,-99.99,,,-99.99,,2013-02-09 14:42:00,
2013-02-09 10:02:00,24.0,-99.9,30.44,North,1,6.0,9.0,-999,-99.99,,,-99.99,,2013-02-09 15:02:00,
2013-02-09 10:42:00,24.0,-99.9,-100.00,NE,55,10.0,13.0,-999,-99.99,,,-99.99,,2013-02-09 15:42:00,
2013-02-09 11:11:00,24.0,-99.9,-100.00,NE,45,7.0,9.0,-999,-99.99,,,-99.99,,2013-02-09 16:11:00,
2013-02-09 11:22:00,-999.0,-99.9,-100.00,NE,53,8.0,9.0,-999,-99.99,,,-99.99,,2013-02-09 16:22:00,
2013-02-09 11:52:00,24.0,-99.9,30.44,NE,53,8.0,9.0,-999,-99.99,,,-99.99,,2013-02-09 16:52:00,
2013-02-09 12:11:00,24.0,-99.9,-100.00,NE,54,6.0,8.0,-999,-99.99,,,-99.99,,2013-02-09 17:11:00,
2013-02-09 12:22:00,-999.0,-99.9,-100.00,ENE,57,5.0,7.0,-999,-99.99,,,-99.99,,2013-02-09 17:22:00,
2013-02-09 12:32:00,25.0,-99.9,30.43,ENE,76,3.0,5.0,-999,-99.99,,,-99.99,,2013-02-09 17:32:00,
2013-02-09 12:52:00,25.0,-99.9,30.43,North,1,2.0,5.0,-999,-99.99,,,-99.99,,2013-02-09 17:52:00,
2013-02-09 13:02:00,25.0,-99.9,30.43,NNW,348,4.0,6.0,-999,-99.99,,,-99.99,,2013-02-09 18:02:00,
2013-02-09 13:12:00,25.0,-99.9,30.42,North,7,3.0,6.0,-999,-99.99,,,-99.99,,2013-02-09 18:12:00,
2013-02-09 13:42:00,25.0,-99.9,30.42,NW,320,4.0,6.0,-999,-99.99,,,-99.99,,2013-02-09 18:42:00,
2013-02-09 13:52:00,-999.0,-99.9,-100.00,NW,322,6.0,7.0,-999,-99.99,,,-99.99,,2013-02-09 18:52:00,
2013-02-09 14:02:00,25.0,-99.9,30.42,NNW,328,6.0,8.0,-999,-99.99,,,-99.99,,2013-02-09 19:02:00,
2013-02-09 14:32:00,26.0,-99.9,30.41,NNW,347,5.0,7.0,-999,-99.99,,,-99.99,,2013-02-09 19:32:00,
2013-02-09 14:42:00,26.0,-99.9,-100.00,North,9,5.0,7.0,-999,-99.99,,,-99.99,,2013-02-09 19:42:00,
2013-02-09 14:52:00,-999.0,-99.9,-100.00,North,5,6.0,8.0,-999,-99.99,,,-99.99,,2013-02-09 19:52:00,
2013-02-09 15:02:00,25.0,-99.9,30.40,NNE,29,4.0,6.0,-999,-99.99,,,-99.99,,2013-02-09 20:02:00,
2013-02-09 15:11:00,26.0,-99.9,-100.00,NE,51,5.0,7.0,-999,-99.99,,,-99.99,,2013-02-09 20:11:00,
2013-02-09 15:22:00,-999.0,-99.9,-100.00,NNE,18,4.0,6.0,-999,-99.99,,,-99.99,,2013-02-09 20:22:00,
2013-02-09 15:52:00,26.0,-99.9,30.40,NNE,19,4.0,6.0,-999,-99.99,,,-99.99,,2013-02-09 20:52:00,
2013-02-09 16:02:00,25.0,-99.9,30.40,North,358,5.0,6.0,-999,-99.99,,,-99.99,,2013-02-09 21:02:00,
2013-02-09 16:12:00,26.0,-99.9,30.40,North,-999,5.0,7.0,-999,-99.99,,,-99.99,,2013-02-09 21:12:00,
2013-02-09 16:22:00,-999.0,-99.9,-100.00,NNE,16,5.0,6.0,-999,-99.99,,,-99.99,,2013-02-09 21:22:00,
2013-02-09 16:42:00,25.0,-99.9,-100.00,NNE,24,5.0,8.0,-999,-99.99,,,-99.99,,2013-02-09 21:42:00,
2013-02-09 17:02:00,25.0,-99.9,30.38,ENE,57,5.0,7.0,-999,-99.99,,,-99.99,,2013-02-09 22:02:00,
2013-02-09 17:32:00,25.0,-99.9,30.38,NE,50,6.0,7.0,-999,-99.99,,,-99.99,,2013-02-09 22:32:00,
2013-02-09 17:42:00,25.0,-99.9,30.38,NE,34,6.0,7.0,-999,-99.99,,,-99.99,,2013-02-09 22:42:00,
2013-02-09 17:52:00,25.0,-99.9,30.38,NE,35,6.0,7.0,-999,-99.99,,,-99.99,,2013-02-09 22:52:00,
2013-02-09 18:11:00,25.0,-99.9,-100.00,NE,50,7.0,8.0,-999,-99.99,,,-99.99,,2013-02-09 23:11:00,
2013-02-09 18:32:00,25.0,-99.9,30.37,ENE,61,9.0,9.0,-999,-99.99,,,-99.99,,2013-02-09 23:32:00,
2013-02-09 18:52:00,24.0,-99.9,30.37,ENE,66,9.0,10.0,-999,-99.99,,,-99.99,,2013-02-09 23:52:00,
2013-02-09 19:02:00,24.0,-99.9,30.38,ENE,57,7.0,9.0,-999,-99.99,,,-99.99,,2013-02-10 00:02:00,
2013-02-09 19:12:00,24.0,-99.9,30.38,NE,56,8.0,10.0,-999,-99.99,,,-99.99,,2013-02-10 00:12:00,
2013-02-09 19:32:00,24.0,-99.9,30.39,North,-999,-999.0,-999.0,-999,-99.99,,,-99.99,,2013-02-10 00:32:00,
2013-02-09 19:42:00,24.0,-99.9,-100.00,ENE,57,7.0,8.0,-999,-99.99,,,-99.99,,2013-02-10 00:42:00,
2013-02-09 20:01:00,24.0,-99.9,30.39,North,-999,-999.0,-999.0,-999,-99.99,,,-99.99,,2013-02-10 01:01:00,
2013-02-09 20:12:00,24.0,-99.9,-100.00,ENE,65,6.0,8.0,-999,-99.99,,,-99.99,,2013-02-10 01:12:00,
2013-02-09 20:42:00,23.0,-99.9,-100.00,ENE,76,6.0,7.0,-999,-99.99,,,-99.99,,2013-02-10 01:42:00,
2013-02-09 20:52:00,23.0,-99.9,30.39,East,80,6.0,7.0,-999,-99.99,,,-99.99,,2013-02-10 01:52:00,
2013-02-09 21:02:00,23.0,-99.9,-100.00,East,95,5.0,6.0,-999,-99.99,,,-99.99,,2013-02-10 02:02:00,
2013-02-09 21:11:00,23.0,-99.9,30.38,East,95,4.0,6.0,-999,-99.99,,,-99.99,,2013-02-10 02:11:00,
2013-02-09 21:22:00,-999.0,-99.9,-100.00,East,99,3.0,5.0,-999,-99.99,,,-99.99,,2013-02-10 02:22:00,
2013-02-09 21:32:00,23.0,-99.9,30.38,ESE,112,2.0,3.0,-999,-99.99,,,-99.99,,2013-02-10 02:32:00,
2013-02-09 21:42:00,23.0,-99.9,-100.00,SSE,167,1.0,2.0,-999,-99.99,,,-99.99,,2013-02-10 02:42:00,
2013-02-09 22:42:00,23.0,-99.9,30.35,ESE,116,1.0,3.0,-999,-99.99,,,-99.99,,2013-02-10 03:42:00,
2013-02-09 23:11:00,23.0,-99.9,30.33,ESE,118,2.0,3.0,-999,-99.99,,,-99.99,,2013-02-10 04:11:00,
2013-02-09 23:22:00,-999.0,-99.9,-100.00,ESE,106,2.0,3.0,-999,-99.99,,,-99.99,,2013-02-10 04:22:00,
2013-02-09 23:32:00,22.0,-99.9,30.33,SE,138,-999.0,1.0,-999,-99.99,,,-99.99,,2013-02-10 04:32:00,
2013-02-09 23:42:00,22.0,-99.9,30.33,North,-999,-999.0,-999.0,-999,-99.99,,,-99.99,,2013-02-10 04:42:00,